Time;durP1;ratioP1;P1;durP2;ratioP2;P2;SDS_P1;SDS_P2;PMS_P1;PMS_P2;Temp;Humidity;BMP_temperature;BMP_pressure;BME280_temperature;BME280_humidity;BME280_pressure;Samples;Min_cycle;Max_cycle;Signal;HPM_P1;HPM_P2
2021/12/18 08:17:43;;;;;;;5.00;2.10;;;6.30;99.90;;;;;;6231722;22;99976;31
2021/12/18 08:20:30;;;;;;;5.57;2.87;;;6.40;99.90;;;;;;6214352;22;97414;-83
2021/12/18 08:25:56;;;;;;;4.40;3.13;;;6.30;99.90;;;;;;6227988;22;99817;-81
2021/12/18 08:28:43;;;;;;;5.03;3.83;;;6.40;99.90;;;;;;6308847;22;98690;-83
2021/12/18 08:31:39;;;;;;;5.10;3.30;;;6.40;99.90;;;;;;6292037;22;97786;-83
2021/12/18 08:40:16;;;;;;;5.60;3.47;;;6.40;99.90;;;;;;6292751;22;99924;-82
2021/12/18 08:43:03;;;;;;;5.20;3.90;;;6.50;99.90;;;;;;6334865;22;97427;-82
2021/12/18 08:45:50;;;;;;;5.10;4.07;;;6.50;99.90;;;;;;6336089;22;98017;-82
2021/12/18 08:48:36;;;;;;;4.63;3.60;;;6.50;99.90;;;;;;6335504;22;98034;-82
2021/12/18 08:51:23;;;;;;;4.97;3.70;;;6.50;99.90;;;;;;6305689;22;99026;-82
2021/12/18 08:54:09;;;;;;;5.23;3.93;;;6.50;99.90;;;;;;6311198;22;99145;-82
2021/12/18 08:57:01;;;;;;;4.77;3.67;;;6.50;99.90;;;;;;6313580;22;98282;-81
2021/12/18 08:59:48;;;;;;;4.47;3.80;;;6.50;99.90;;;;;;6336797;22;98205;-82
2021/12/18 09:02:35;;;;;;;5.60;4.00;;;6.40;99.90;;;;;;6312262;22;98329;-82
2021/12/18 09:05:25;;;;;;;4.60;3.57;;;6.40;99.90;;;;;;6334319;22;97496;-83
2021/12/18 09:08:14;;;;;;;4.20;3.30;;;6.40;99.90;;;;;;6315048;22;97374;-82
2021/12/18 09:11:01;;;;;;;4.43;3.60;;;6.40;99.90;;;;;;6336928;22;97747;-81
2021/12/18 09:13:48;;;;;;;3.93;3.50;;;6.50;99.90;;;;;;6309834;22;98800;-81
2021/12/18 09:16:34;;;;;;;5.00;4.00;;;6.40;99.90;;;;;;6327207;22;98236;-80
2021/12/18 09:19:33;;;;;;;5.60;3.97;;;6.40;99.90;;;;;;6335255;22;98307;-84
2021/12/18 09:22:19;;;;;;;5.30;4.37;;;6.40;99.90;;;;;;6315325;22;98376;-82
2021/12/18 09:25:30;;;;;;;6.47;5.10;;;6.40;99.90;;;;;;6315337;22;98773;-83
2021/12/18 09:28:16;;;;;;;5.07;4.30;;;6.40;99.90;;;;;;6314056;22;98233;-84
2021/12/18 09:31:49;;;;;;;6.03;4.90;;;6.40;99.90;;;;;;6338877;22;97414;-84
2021/12/18 09:34:36;;;;;;;5.40;4.60;;;6.40;99.90;;;;;;6316735;22;97465;-83
2021/12/18 09:37:28;;;;;;;6.10;5.07;;;6.40;99.90;;;;;;6338807;22;98223;-84
2021/12/18 09:40:16;;;;;;;5.00;4.27;;;6.40;99.90;;;;;;6337419;22;98330;-84
2021/12/18 11:30:19;;;;;;;2.93;2.63;;;6.60;99.90;;;;;;6271970;22;99782;-85
2021/12/18 11:33:07;;;;;;;3.27;2.80;;;6.60;99.90;;;;;;6265907;22;100006;-86
2021/12/18 11:48:56;;;;;;;3.80;2.93;;;6.70;99.90;;;;;;6279242;22;100779;-85
2021/12/18 12:52:12;;;;;;;2.77;2.37;;;6.70;99.90;;;;;;6300297;22;98393;-83
2021/12/18 12:55:14;;;;;;;3.60;2.63;;;6.80;99.90;;;;;;6303751;22;99809;-83
2021/12/18 13:18:53;;;;;;;3.23;2.93;;;6.90;99.90;;;;;;6257282;22;100758;-84
2021/12/18 13:29:24;;;;;;;5.50;4.50;;;6.90;99.90;;;;;;6229662;22;101334;-86
2021/12/18 13:47:53;;;;;;;4.83;4.40;;;6.80;99.90;;;;;;6263847;22;99737;-85
2021/12/18 13:50:39;;;;;;;3.97;3.40;;;6.90;99.90;;;;;;6251926;22;98352;-83
2021/12/18 13:56:11;;;;;;;4.20;3.67;;;6.80;99.90;;;;;;6264163;22;99534;-83
2021/12/18 13:58:58;;;;;;;4.03;3.07;;;6.80;99.90;;;;;;6283748;22;97717;-83
2021/12/18 14:01:48;;;;;;;3.53;3.23;;;6.70;99.90;;;;;;6283892;22;97638;-85
2021/12/18 14:04:37;;;;;;;3.30;3.00;;;6.70;99.90;;;;;;6305496;22;97484;-84
2021/12/18 14:07:24;;;;;;;2.50;2.30;;;6.70;99.90;;;;;;6283659;22;98233;-84
2021/12/18 14:10:11;;;;;;;3.10;2.80;;;6.70;99.90;;;;;;6280530;22;98042;-82
2021/12/18 14:13:00;;;;;;;2.93;2.57;;;6.70;99.90;;;;;;6283163;22;97430;-84
2021/12/18 14:15:47;;;;;;;2.40;2.00;;;6.70;99.90;;;;;;6282329;22;98556;-85
2021/12/18 14:18:49;;;;;;;2.50;2.30;;;6.80;99.90;;;;;;6283166;22;97704;-84
2021/12/18 14:21:39;;;;;;;2.97;2.50;;;6.80;99.90;;;;;;6305974;22;98345;-85
2021/12/18 15:04:18;;;;;;;4.80;4.40;;;6.50;99.90;;;;;;6237726;22;100656;-83
2021/12/18 18:30:35;;;;;;;22.00;19.37;;;6.40;99.90;;;;;;6238376;22;100286;-85
2021/12/18 19:07:06;;;;;;;27.53;22.57;;;6.50;99.90;;;;;;6318574;22;99619;-84
2021/12/18 19:09:57;;;;;;;24.63;20.93;;;6.50;99.90;;;;;;6313011;22;98095;-85
2021/12/18 20:40:12;;;;;;;23.93;17.90;;;6.60;99.90;;;;;;6246628;22;97410;-84
